Nearby METAR Reports

 

KAVP - Avoca/Wilkes B., Pennsylvania, USA
Distance from station: N 16mi, 25km
Updated: 02/20/2018 1:54am
Mist, Overcast
Mist, Overcast
 Wind from SW
Wind: SW 3 mph , 6 km/h
Temperature: 43°F , 6°C
Dew Point: 41°F , 5°C
Humidity: 93%
Barometer: 30.26 inHg , 1024.7 hPa
Summary: Mist
Clouds: Overcast
Visibility: 5 miles , 8 km
Cloud details: Overcast 600 ft
2018/02/20 06:54 KAVP 200654Z 22003KT 5SM BR OVC006 06/05 A3026 RMK AO2 SLP253 T00560050
KMPO - Mt. Pocono, Pennsylvania, USA
Distance from station: E 20mi, 33km
Updated: 02/20/2018 2:09am
Mist, Overcast
Mist, Overcast
 Wind from W
Wind: W 10 mph , 17 km/h
Temperature: 39°F , 4°C
Wind Chill: 32°F , 0°C
Dew Point: 39°F , 4°C
Humidity: 100%
Barometer: 30.25 inHg , 1024.4 hPa
Summary: Mist
Clouds: Overcast
Visibility: 3 miles , 5 km
Cloud details: Overcast 200 ft
2018/02/20 07:09 KMPO 200709Z AUTO 27009KT 3SM BR OVC002 04/04 A3025 RMK AO2 T00440044 $
 
KABE - Allentown, Pennsylvania, USA
Distance from station: SSE 36mi, 58km
Updated: 02/20/2018 1:51am
Fog, Overcast
Fog, Overcast
 Wind from calm
Wind: Calm
Temperature: 37°F , 3°C
Dew Point: 36°F , 2°C
Humidity: 93%
Barometer: 30.31 inHg , 1026.4 hPa
Summary: Fog
Clouds: Overcast
Visibility: 1/4 mile , 0.4 km
Cloud details: Overcast 300 ft
2018/02/20 06:51 KABE 200651Z 00000KT 1/4SM FG VV003 03/02 A3031 RMK AO2 SLP267 T00280017
KXLL - Allentown Queen, Pennsylvania, USA
Distance from station: SSE 41mi, 65km
Updated: 02/20/2018 2:15am
Fog, Overcast
Fog, Overcast
 Wind from calm
Wind: Calm
Temperature: 37°F , 3°C
Dew Point: 37°F , 3°C
Humidity: 100%
Barometer: 30.32 inHg , 1026.8 hPa
Summary: Fog
Clouds: Overcast
Visibility: 1/4 mile , 0.4 km
Cloud details: Overcast 400 ft
2018/02/20 07:15 KXLL 200715Z AUTO 00000KT 1/4SM FG OVC004 03/03 A3032 RMK AO2